createdAt,value
2019-04-16T00:01:30.686Z,7.57
2019-04-16T00:04:03.753Z,7.53
2019-04-16T00:06:53.459Z,7.52
2019-04-16T00:09:29.843Z,7.56
2019-04-16T00:12:05.683Z,7.52
2019-04-16T00:14:36.692Z,7.50
2019-04-16T00:17:03.849Z,7.50
2019-04-16T00:19:30.943Z,7.47
2019-04-16T00:22:20.639Z,7.46
2019-04-16T00:24:50.895Z,7.44
2019-04-16T00:27:17.947Z,7.41
2019-04-16T00:29:45.030Z,7.36
2019-04-16T00:32:30.603Z,7.33
2019-04-16T00:34:57.681Z,7.32
2019-04-16T00:37:24.757Z,7.30
2019-04-16T00:39:55.556Z,7.31
2019-04-16T00:42:20.807Z,7.31
2019-04-16T00:44:47.918Z,7.28
2019-04-16T00:47:15.195Z,7.28
2019-04-16T00:49:42.259Z,7.30
2019-04-16T00:52:09.353Z,7.33
2019-04-16T00:54:36.395Z,7.29
2019-04-16T00:57:03.437Z,7.24
2019-04-16T00:59:30.521Z,7.19
2019-04-16T01:01:57.611Z,7.15
2019-04-16T01:04:25.038Z,7.13
2019-04-16T01:06:52.144Z,7.09
2019-04-16T01:09:19.200Z,7.10
2019-04-16T01:11:48.892Z,7.05
2019-04-16T01:14:15.228Z,7.05
2019-04-16T01:16:42.288Z,7.02
2019-04-16T01:19:10.762Z,7.00
2019-04-16T01:21:38.286Z,7.04
2019-04-16T01:24:05.525Z,6.94
2019-04-16T01:26:32.579Z,6.85
2019-04-16T01:29:05.467Z,6.78
2019-04-16T01:31:54.915Z,6.69
2019-04-16T01:34:53.614Z,6.71
2019-04-16T01:37:56.559Z,6.70
2019-04-16T01:40:26.443Z,6.67
2019-04-16T01:42:54.602Z,6.62
2019-04-16T01:45:22.307Z,6.55
2019-04-16T01:47:49.401Z,6.53
2019-04-16T01:50:16.507Z,6.50
2019-04-16T01:52:49.457Z,6.45
2019-04-16T01:55:15.537Z,6.42
2019-04-16T01:57:42.657Z,6.38
2019-04-16T02:00:10.134Z,6.47
2019-04-16T02:02:37.253Z,6.46
2019-04-16T02:05:04.878Z,6.53
2019-04-16T02:07:31.939Z,6.54
2019-04-16T02:09:58.999Z,6.59
2019-04-16T02:12:26.062Z,6.57
2019-04-16T02:14:53.107Z,6.56
2019-04-16T02:17:20.154Z,6.59
2019-04-16T02:19:47.221Z,6.62
2019-04-16T02:22:14.278Z,6.64
2019-04-16T02:24:41.344Z,6.68
2019-04-16T02:27:08.572Z,6.69
2019-04-16T02:29:35.571Z,6.68
2019-04-16T02:32:02.613Z,6.68
2019-04-16T02:34:29.690Z,6.68
2019-04-16T02:37:00.890Z,6.64
2019-04-16T02:39:46.651Z,6.61
2019-04-16T02:41:58.149Z,6.57
2019-04-16T02:44:23.621Z,6.54
2019-04-16T02:46:50.696Z,6.59
2019-04-16T02:49:22.991Z,6.67
2019-04-16T02:52:18.684Z,6.65
2019-04-16T02:54:50.287Z,6.61
2019-04-16T02:57:27.964Z,6.58
2019-04-16T02:59:56.464Z,6.58
2019-04-16T03:02:57.992Z,6.60
2019-04-16T03:05:29.813Z,6.57
2019-04-16T03:07:57.157Z,6.57
2019-04-16T03:10:24.311Z,6.55
2019-04-16T03:12:53.740Z,6.54
2019-04-16T03:15:40.393Z,6.53
2019-04-16T03:18:07.562Z,6.54
2019-04-16T03:20:34.629Z,6.49
2019-04-16T03:23:05.164Z,6.45
2019-04-16T03:25:30.641Z,6.39
2019-04-16T03:27:57.724Z,6.40
2019-04-16T03:30:24.774Z,6.38
2019-04-16T03:32:51.975Z,6.33
2019-04-16T03:35:19.484Z,6.28
2019-04-16T03:37:46.894Z,6.26
2019-04-16T03:40:17.762Z,6.20
2019-04-16T03:42:42.946Z,6.16
2019-04-16T03:45:12.053Z,6.10
2019-04-16T03:48:15.566Z,6.10
2019-04-16T03:50:42.625Z,6.12
2019-04-16T03:53:09.665Z,6.03
2019-04-16T03:55:36.755Z,5.95
2019-04-16T03:58:06.096Z,5.86
2019-04-16T04:00:33.227Z,5.79
2019-04-16T04:03:00.389Z,5.71
2019-04-16T04:05:27.454Z,5.68
2019-04-16T04:07:55.495Z,5.61
2019-04-16T04:10:30.459Z,5.56
2019-04-16T04:13:17.512Z,5.51
2019-04-16T04:15:40.812Z,5.52
2019-04-16T04:18:11.674Z,5.56
2019-04-16T04:20:37.100Z,5.57
2019-04-16T04:23:04.537Z,5.59
2019-04-16T04:25:36.072Z,5.62
2019-04-16T04:28:00.571Z,5.62
2019-04-16T04:30:28.860Z,5.61
2019-04-16T04:32:56.574Z,5.58
2019-04-16T04:35:23.715Z,5.55
2019-04-16T04:37:50.710Z,5.52
2019-04-16T04:40:18.071Z,5.50
2019-04-16T04:42:45.225Z,5.45
2019-04-16T04:45:12.315Z,5.45
2019-04-16T04:47:39.373Z,5.44
2019-04-16T04:50:06.621Z,5.44
2019-04-16T04:52:46.801Z,5.51
2019-04-16T04:55:15.166Z,5.55
2019-04-16T04:57:42.247Z,5.54
2019-04-16T05:00:09.779Z,5.56
2019-04-16T05:02:36.834Z,5.57
2019-04-16T05:05:26.310Z,5.53
2019-04-16T05:07:53.400Z,5.52
2019-04-16T05:10:42.854Z,5.54
2019-04-16T05:13:07.402Z,5.60
2019-04-16T05:15:34.457Z,5.64
2019-04-16T05:18:01.571Z,5.71
2019-04-16T05:20:30.007Z,5.76
2019-04-16T05:22:58.067Z,5.82
2019-04-16T05:25:25.282Z,5.85
2019-04-16T05:27:52.330Z,5.91
2019-04-16T05:30:20.858Z,5.92
2019-04-16T05:32:48.395Z,5.94
2019-04-16T05:35:15.432Z,6.03
2019-04-16T05:37:42.841Z,6.10
2019-04-16T05:40:10.980Z,6.15
2019-04-16T05:42:38.070Z,6.17
2019-04-16T05:45:06.430Z,6.23
2019-04-16T05:47:33.564Z,6.31
2019-04-16T05:50:00.611Z,6.43
2019-04-16T05:52:39.883Z,6.52
2019-04-16T05:55:26.871Z,6.58
2019-04-16T05:57:57.909Z,6.65
2019-04-16T06:00:42.592Z,6.76
2019-04-16T06:03:09.689Z,6.82
2019-04-16T06:05:36.844Z,6.86
2019-04-16T06:08:10.770Z,6.97
2019-04-16T06:10:37.965Z,7.03
2019-04-16T06:13:24.644Z,7.12
2019-04-16T06:16:24.133Z,7.19
2019-04-16T06:19:11.358Z,7.27
2019-04-16T06:22:00.131Z,7.36
2019-04-16T06:25:09.209Z,7.44
2019-04-16T06:27:52.307Z,7.48
2019-04-16T06:30:34.818Z,7.55
2019-04-16T06:33:27.292Z,7.63
2019-04-16T06:36:00.150Z,7.68
2019-04-16T06:38:49.117Z,7.87
2019-04-16T06:41:47.835Z,7.94
2019-04-16T06:44:17.506Z,8.05
2019-04-16T06:46:51.220Z,8.15
2019-04-16T06:49:39.425Z,8.21
2019-04-16T06:52:20.416Z,8.28
2019-04-16T06:55:03.698Z,8.37
2019-04-16T06:57:43.077Z,8.52
2019-04-16T07:00:42.536Z,8.59
2019-04-16T07:03:27.857Z,8.63
2019-04-16T07:06:20.259Z,8.73
2019-04-16T07:08:59.702Z,8.89
2019-04-16T07:11:26.833Z,9.11
2019-04-16T07:13:53.938Z,9.13
2019-04-16T07:16:21.023Z,9.17
2019-04-16T07:18:48.103Z,9.30
2019-04-16T07:21:17.598Z,9.42
2019-04-16T07:23:46.462Z,9.47
2019-04-16T07:26:14.808Z,9.59
2019-04-16T07:28:47.300Z,9.70
2019-04-16T07:31:32.801Z,9.84
2019-04-16T07:34:08.671Z,9.97
2019-04-16T07:36:48.387Z,10.03
2019-04-16T07:39:38.070Z,10.06
2019-04-16T07:42:27.782Z,10.25
2019-04-16T07:45:04.960Z,10.42
2019-04-16T07:47:38.577Z,10.45
2019-04-16T07:50:34.302Z,10.52
2019-04-16T07:53:19.466Z,10.53
2019-04-16T07:55:49.793Z,10.55
2019-04-16T07:58:16.871Z,10.69
2019-04-16T08:00:44.063Z,10.88
2019-04-16T08:03:11.126Z,11.06
2019-04-16T08:05:41.195Z,11.14
2019-04-16T08:08:07.222Z,11.20
2019-04-16T08:10:34.307Z,11.24
2019-04-16T08:13:14.253Z,11.30
2019-04-16T08:15:41.404Z,11.39
2019-04-16T08:18:08.527Z,11.47
2019-04-16T08:20:35.580Z,11.49
2019-04-16T08:23:12.743Z,11.56
2019-04-16T08:25:39.846Z,11.61
2019-04-16T08:28:07.703Z,11.69
2019-04-16T08:30:39.194Z,11.83
2019-04-16T08:33:03.864Z,11.99
2019-04-16T08:35:30.926Z,12.12
2019-04-16T08:37:58.895Z,12.18
2019-04-16T08:40:26.113Z,12.25
2019-04-16T08:42:56.978Z,12.36
2019-04-16T08:45:22.088Z,12.41
2019-04-16T08:47:49.149Z,12.57
2019-04-16T08:50:18.167Z,12.72
2019-04-16T08:52:45.216Z,12.84
2019-04-16T08:55:12.323Z,12.96
2019-04-16T08:57:39.375Z,13.04
2019-04-16T09:00:14.349Z,13.13
2019-04-16T09:02:38.505Z,13.14
2019-04-16T09:05:08.217Z,13.19
2019-04-16T09:07:40.844Z,13.25
2019-04-16T09:10:18.220Z,13.38
2019-04-16T09:12:44.908Z,13.39
2019-04-16T09:15:11.309Z,13.41
2019-04-16T09:17:40.695Z,13.44
2019-04-16T09:20:09.586Z,13.50
2019-04-16T09:22:48.360Z,13.53
2019-04-16T09:25:14.081Z,13.56
2019-04-16T09:27:43.495Z,13.72
2019-04-16T09:30:29.139Z,13.85
2019-04-16T09:33:21.895Z,13.92
2019-04-16T09:35:59.740Z,13.95
2019-04-16T09:38:45.243Z,14.00
2019-04-16T09:41:48.529Z,14.06
2019-04-16T09:44:15.647Z,14.23
2019-04-16T09:46:51.901Z,14.43
2019-04-16T09:49:11.600Z,14.43
2019-04-16T09:51:38.703Z,14.51
2019-04-16T09:54:05.796Z,14.63
2019-04-16T09:56:32.834Z,14.68
2019-04-16T09:59:20.775Z,14.71
2019-04-16T10:02:02.598Z,14.77
2019-04-16T10:04:29.700Z,14.85
2019-04-16T10:06:56.826Z,14.92
2019-04-16T10:09:23.956Z,15.03
2019-04-16T10:11:51.027Z,15.13
2019-04-16T10:16:56.694Z,15.36
2019-04-16T10:19:23.863Z,15.43
2019-04-16T10:21:54.286Z,15.53
2019-04-16T10:24:46.518Z,15.66
2019-04-16T10:27:25.416Z,15.77
2019-04-16T10:29:53.918Z,15.84
2019-04-16T10:32:21.072Z,15.89
2019-04-16T10:34:48.431Z,15.98
2019-04-16T10:37:15.541Z,16.07
2019-04-16T10:40:11.484Z,16.16
2019-04-16T10:42:56.947Z,16.30
2019-04-16T10:45:46.629Z,16.44
2019-04-16T10:48:26.621Z,16.60
2019-04-16T10:51:04.089Z,16.77
2019-04-16T10:53:46.861Z,16.93
2019-04-16T10:56:46.279Z,16.99
2019-04-16T10:59:31.556Z,17.14
2019-04-16T11:02:18.280Z,17.39
2019-04-16T11:04:53.229Z,17.59
2019-04-16T11:07:23.240Z,17.79
2019-04-16T11:09:50.304Z,17.87
2019-04-16T11:12:19.763Z,17.98
2019-04-16T11:14:46.513Z,18.12
2019-04-16T11:17:22.202Z,18.36
2019-04-16T11:19:52.659Z,18.57
2019-04-16T11:22:18.215Z,18.76
2019-04-16T11:24:51.458Z,18.84
2019-04-16T11:27:24.348Z,18.94
2019-04-16T11:29:51.436Z,19.04
2019-04-16T11:32:21.566Z,19.21
2019-04-16T11:34:48.639Z,19.34
2019-04-16T11:37:15.670Z,19.41
2019-04-16T11:39:42.829Z,19.45
2019-04-16T11:42:09.954Z,19.56
2019-04-16T11:44:36.998Z,19.71
2019-04-16T11:47:10.108Z,19.81
2019-04-16T11:49:37.187Z,19.94
2019-04-16T11:52:04.336Z,20.03
2019-04-16T11:54:37.590Z,20.12
2019-04-16T11:57:05.882Z,20.18
2019-04-16T11:59:32.913Z,20.33
2019-04-16T12:02:09.432Z,20.61
2019-04-16T12:04:57.270Z,20.91
2019-04-16T12:07:41.191Z,21.12
2019-04-16T12:10:28.187Z,21.50
2019-04-16T12:13:27.897Z,21.74
2019-04-16T12:16:03.638Z,21.93
2019-04-16T12:18:37.975Z,22.39
2019-04-16T12:21:15.839Z,22.47
2019-04-16T12:23:59.343Z,22.72
2019-04-16T12:26:39.260Z,22.89
2019-04-16T12:29:23.230Z,23.07
2019-04-16T12:32:10.051Z,23.27
2019-04-16T12:34:55.008Z,23.61
2019-04-16T12:37:40.673Z,23.99
2019-04-16T12:40:19.013Z,24.11
2019-04-16T12:43:01.574Z,24.12
2019-04-16T12:45:37.779Z,24.37
2019-04-16T12:48:14.410Z,24.57
2019-04-16T12:50:59.926Z,24.79
2019-04-16T12:54:04.886Z,24.59
2019-04-16T12:56:54.470Z,24.62
2019-04-16T12:59:54.690Z,24.46
2019-04-16T13:02:31.671Z,24.14
2019-04-16T13:05:33.514Z,24.01
2019-04-16T13:08:18.861Z,23.91
2019-04-16T13:11:23.569Z,24.15
2019-04-16T13:14:13.074Z,24.33
2019-04-16T13:16:59.903Z,24.61
2019-04-16T13:19:59.299Z,24.74
2019-04-16T13:22:30.316Z,24.86
2019-04-16T13:25:13.097Z,24.93
2019-04-16T13:27:40.179Z,24.96
2019-04-16T13:30:08.332Z,24.89
2019-04-16T13:32:35.715Z,24.94
2019-04-16T13:35:06.153Z,24.98
2019-04-16T13:37:36.995Z,24.61
2019-04-16T13:40:13.130Z,24.18
2019-04-16T13:42:40.587Z,23.87
2019-04-16T13:45:45.105Z,23.55
2019-04-16T13:48:27.503Z,23.01
2019-04-16T13:50:58.055Z,22.24
2019-04-16T13:53:42.420Z,22.07
2019-04-16T13:56:21.883Z,21.91
2019-04-16T13:59:12.564Z,22.01
2019-04-16T14:01:53.515Z,21.97
2019-04-16T14:04:20.666Z,22.23
2019-04-16T14:06:53.266Z,22.62
2019-04-16T14:09:22.367Z,22.85
2019-04-16T14:11:51.262Z,23.02
2019-04-16T14:14:22.485Z,23.34
2019-04-16T14:16:48.009Z,23.21
2019-04-16T14:19:15.109Z,22.95
2019-04-16T14:21:42.260Z,22.86
2019-04-16T14:24:11.927Z,22.91
2019-04-16T14:26:38.533Z,22.89
2019-04-16T14:29:07.874Z,22.89
2019-04-16T14:31:35.270Z,22.77
2019-04-16T14:34:29.812Z,22.68
2019-04-16T14:36:57.631Z,22.57
2019-04-16T14:39:32.250Z,22.59
2019-04-16T14:41:59.568Z,22.58
2019-04-16T14:44:28.762Z,22.63
2019-04-16T14:47:00.555Z,22.47
2019-04-16T14:49:27.061Z,22.42
2019-04-16T14:51:54.110Z,22.31
2019-04-16T14:54:45.125Z,22.50
2019-04-16T14:57:12.864Z,22.63
2019-04-16T14:59:51.356Z,22.72
2019-04-16T15:02:40.817Z,22.92
2019-04-16T15:05:33.384Z,23.02
2019-04-16T15:08:18.870Z,22.84
2019-04-16T15:11:20.884Z,22.73
2019-04-16T15:13:53.204Z,22.73
2019-04-16T15:16:38.809Z,22.90
2019-04-16T15:19:24.207Z,22.96
2019-04-16T15:22:20.043Z,22.95
2019-04-16T15:24:56.598Z,22.75
2019-04-16T15:27:49.193Z,22.57
2019-04-16T15:30:33.044Z,22.38
2019-04-16T15:33:28.854Z,22.18
2019-04-16T15:35:59.732Z,21.88
2019-04-16T15:38:49.460Z,21.47
2019-04-16T15:41:24.245Z,21.16
2019-04-16T15:44:26.049Z,20.75
2019-04-16T15:47:18.665Z,20.62
2019-04-16T15:49:55.735Z,20.48
2019-04-16T15:52:38.853Z,20.32
2019-04-16T15:55:24.673Z,20.30
2019-04-16T15:58:04.638Z,20.34
2019-04-16T16:00:50.150Z,20.35
2019-04-16T16:03:50.071Z,20.58
2019-04-16T16:06:20.985Z,20.86
2019-04-16T16:09:08.842Z,20.91
2019-04-16T16:11:51.121Z,20.88
2019-04-16T16:14:18.258Z,20.68
2019-04-16T16:16:47.836Z,20.53
2019-04-16T16:19:14.532Z,20.61
2019-04-16T16:21:41.582Z,20.52
2019-04-16T16:24:08.658Z,20.59
2019-04-16T16:26:35.781Z,20.47
2019-04-16T16:29:03.047Z,20.33
2019-04-16T16:31:35.010Z,20.18
2019-04-16T16:33:59.094Z,20.06
2019-04-16T16:36:26.151Z,19.92
2019-04-16T16:38:53.236Z,19.84
2019-04-16T16:41:20.468Z,19.54
2019-04-16T16:43:47.544Z,19.35
2019-04-16T16:46:25.994Z,19.14
2019-04-16T16:48:53.208Z,19.13
2019-04-16T16:51:22.986Z,18.97
2019-04-16T16:54:00.313Z,18.85
2019-04-16T16:56:46.510Z,18.75
2019-04-16T16:59:37.418Z,18.57
2019-04-16T17:02:17.946Z,18.41
2019-04-16T17:04:46.898Z,18.39
2019-04-16T17:07:17.533Z,18.21
2019-04-16T17:09:43.122Z,18.17
2019-04-16T17:12:10.215Z,18.00
2019-04-16T17:14:38.063Z,17.84
2019-04-16T17:17:14.250Z,17.79
2019-04-16T17:19:35.713Z,17.76
2019-04-16T17:22:03.094Z,17.67
2019-04-16T17:24:30.253Z,17.53
2019-04-16T17:26:58.486Z,17.38
2019-04-16T17:29:25.601Z,17.28
2019-04-16T17:31:53.547Z,17.23
2019-04-16T17:34:20.931Z,17.12
2019-04-16T17:36:48.105Z,17.03
2019-04-16T17:39:23.320Z,16.99
2019-04-16T17:42:04.580Z,16.89
2019-04-16T17:44:49.679Z,16.80
2019-04-16T17:47:31.930Z,16.69
2019-04-16T17:50:04.519Z,16.57
2019-04-16T17:52:40.715Z,16.46
2019-04-16T17:55:26.214Z,16.45
2019-04-16T17:58:15.889Z,16.35
2019-04-16T18:01:26.863Z,16.27
2019-04-16T18:04:00.276Z,16.20
2019-04-16T18:10:26.663Z,15.96
2019-04-16T18:13:25.389Z,15.90
2019-04-16T18:16:12.214Z,15.84
2019-04-16T18:18:50.796Z,15.81
2019-04-16T18:21:55.911Z,15.79
2019-04-16T18:24:45.471Z,15.79
2019-04-16T18:27:38.000Z,15.72
2019-04-16T18:30:43.389Z,15.71
2019-04-16T18:33:39.300Z,15.65
2019-04-16T18:36:34.859Z,15.64
2019-04-16T18:39:37.420Z,15.59
2019-04-16T18:42:11.049Z,15.49
2019-04-16T18:45:03.658Z,15.41
2019-04-16T18:47:33.577Z,15.27
2019-04-16T18:50:03.187Z,15.23
2019-04-16T18:52:30.314Z,15.11
2019-04-16T18:54:57.490Z,15.07
2019-04-16T18:57:24.632Z,14.95
2019-04-16T18:59:54.893Z,14.85
2019-04-16T19:02:24.139Z,14.76
2019-04-16T19:04:51.306Z,14.72
2019-04-16T19:07:18.387Z,14.65
2019-04-16T19:09:45.597Z,14.57
2019-04-16T19:12:53.859Z,14.53
2019-04-16T19:15:21.417Z,14.44
2019-04-16T19:17:48.511Z,14.38
2019-04-16T19:20:17.834Z,14.35
2019-04-16T19:22:49.803Z,14.39
2019-04-16T19:25:15.745Z,14.33
2019-04-16T19:27:42.864Z,14.32
2019-04-16T19:30:10.469Z,14.28
2019-04-16T19:32:37.548Z,14.20
2019-04-16T19:35:10.019Z,14.08
2019-04-16T19:37:34.046Z,14.00
2019-04-16T19:40:01.392Z,13.89
2019-04-16T19:42:29.910Z,13.79
2019-04-16T19:44:57.240Z,13.71
2019-04-16T19:47:26.551Z,13.65
2019-04-16T19:49:55.196Z,13.58
2019-04-16T19:52:29.828Z,13.47
2019-04-16T19:54:56.920Z,13.37
2019-04-16T19:57:24.508Z,13.34
2019-04-16T19:59:51.851Z,13.31
2019-04-16T20:02:19.964Z,13.26
2019-04-16T20:04:50.584Z,13.26
2019-04-16T20:07:16.070Z,13.21
2019-04-16T20:09:43.411Z,13.13
2019-04-16T20:12:10.559Z,13.08
2019-04-16T20:14:37.658Z,13.00
2019-04-16T20:17:05.781Z,12.97
2019-04-16T20:19:35.926Z,12.92
2019-04-16T20:22:03.198Z,12.90
2019-04-16T20:24:32.336Z,12.83
2019-04-16T20:27:04.939Z,12.76
2019-04-16T20:29:28.714Z,12.69
2019-04-16T20:31:56.129Z,12.61
2019-04-16T20:34:23.198Z,12.54
2019-04-16T20:36:52.177Z,12.47
2019-04-16T20:39:19.480Z,12.39
2019-04-16T20:41:52.852Z,12.33
2019-04-16T20:44:18.044Z,12.33
2019-04-16T20:46:45.337Z,12.34
2019-04-16T20:49:16.651Z,12.33
2019-04-16T20:51:42.679Z,12.31
2019-04-16T20:54:13.123Z,12.29
2019-04-16T20:56:40.957Z,12.28
2019-04-16T20:59:15.639Z,12.26
2019-04-16T21:01:42.709Z,12.21
2019-04-16T21:04:09.861Z,12.17
2019-04-16T21:06:40.751Z,12.15
2019-04-16T21:09:06.792Z,12.08
2019-04-16T21:11:34.010Z,12.01
2019-04-16T21:14:01.971Z,11.97
2019-04-16T21:16:47.780Z,11.94
2019-04-16T21:19:22.824Z,11.88
2019-04-16T21:21:45.166Z,11.81
2019-04-16T21:24:13.701Z,11.76
2019-04-16T21:26:41.060Z,11.70
2019-04-16T21:29:21.574Z,11.64
2019-04-16T21:31:52.805Z,11.58
2019-04-16T21:34:33.049Z,11.51
2019-04-16T21:37:18.664Z,11.44
2019-04-16T21:39:51.166Z,11.32
2019-04-16T21:42:18.206Z,11.21
2019-04-16T21:44:46.469Z,11.17
2019-04-16T21:47:13.655Z,11.12
2019-04-16T21:49:45.073Z,11.06
2019-04-16T21:52:10.851Z,11.00
2019-04-16T21:54:38.284Z,10.93
2019-04-16T21:57:05.368Z,10.84
2019-04-16T21:59:32.637Z,10.78
2019-04-16T22:02:00.674Z,10.75
2019-04-16T22:04:27.756Z,10.73
2019-04-16T22:06:54.970Z,10.68
2019-04-16T22:09:22.039Z,10.65
2019-04-16T22:11:49.173Z,10.62
2019-04-16T22:14:16.412Z,10.58
2019-04-16T22:16:43.454Z,10.55
2019-04-16T22:19:11.130Z,10.50
2019-04-16T22:21:42.434Z,10.45
2019-04-16T22:24:08.575Z,10.39
2019-04-16T22:26:35.719Z,10.33
2019-04-16T22:29:03.247Z,10.30
2019-04-16T22:31:30.576Z,10.23
2019-04-16T22:34:05.712Z,10.20
2019-04-16T22:36:32.972Z,10.24
2019-04-16T22:39:19.616Z,10.26
2019-04-16T22:42:12.343Z,10.21
2019-04-16T22:44:57.589Z,10.08
2019-04-16T22:47:27.184Z,9.95
2019-04-16T22:49:56.749Z,9.90
2019-04-16T22:52:23.205Z,9.86
2019-04-16T22:54:58.619Z,9.82
2019-04-16T22:57:25.748Z,9.77
2019-04-16T22:59:52.879Z,9.73
2019-04-16T23:02:24.705Z,9.71
2019-04-16T23:04:51.799Z,9.68
2019-04-16T23:07:52.307Z,9.63
2019-04-16T23:10:20.984Z,9.60
2019-04-16T23:12:48.436Z,9.54
2019-04-16T23:15:15.498Z,9.51
2019-04-16T23:17:42.793Z,9.49
2019-04-16T23:20:11.838Z,9.46
2019-04-16T23:22:39.400Z,9.43
2019-04-16T23:25:06.546Z,9.39
2019-04-16T23:27:37.212Z,9.35
2019-04-16T23:30:03.890Z,9.32
2019-04-16T23:32:31.044Z,9.30
2019-04-16T23:34:58.189Z,9.26
2019-04-16T23:37:25.252Z,9.25
2019-04-16T23:39:52.303Z,9.22
2019-04-16T23:42:19.831Z,9.16
2019-04-16T23:45:04.458Z,9.14
2019-04-16T23:47:46.487Z,9.13
2019-04-16T23:50:44.779Z,9.12
2019-04-16T23:53:09.526Z,9.14
2019-04-16T23:56:05.517Z,9.22
2019-04-16T23:59:04.808Z,9.33
